createdAt,value
2017-08-21T00:00:40.062Z,11.30
2017-08-21T00:03:07.582Z,11.40
2017-08-21T00:05:35.907Z,11.40
2017-08-21T00:08:03.430Z,11.40
2017-08-21T00:10:30.950Z,11.40
2017-08-21T00:12:59.254Z,11.40
2017-08-21T00:15:26.779Z,11.30
2017-08-21T00:17:55.086Z,11.30
2017-08-21T00:20:22.611Z,11.20
2017-08-21T00:22:50.155Z,11.20
2017-08-21T00:25:17.693Z,11.20
2017-08-21T00:27:46.013Z,11.20
2017-08-21T00:30:13.529Z,11.10
2017-08-21T00:32:41.066Z,11.20
2017-08-21T00:35:08.592Z,11.20
2017-08-21T00:37:36.113Z,11.30
2017-08-21T00:40:03.655Z,11.30
2017-08-21T00:42:31.187Z,11.30
2017-08-21T00:44:58.718Z,11.30
2017-08-21T00:47:26.998Z,11.30
2017-08-21T00:49:54.543Z,11.30
2017-08-21T00:52:22.064Z,11.30
2017-08-21T00:54:50.375Z,11.20
2017-08-21T00:57:17.973Z,11.20
2017-08-21T00:59:45.595Z,11.10
2017-08-21T01:02:13.956Z,11.00
2017-08-21T01:04:41.576Z,11.00
2017-08-21T01:07:09.157Z,11.00
2017-08-21T01:09:36.681Z,10.90
2017-08-21T01:12:04.223Z,10.90
2017-08-21T01:14:31.751Z,10.90
2017-08-21T01:16:59.286Z,11.00
2017-08-21T01:19:26.812Z,11.00
2017-08-21T01:21:55.125Z,10.80
2017-08-21T01:24:22.639Z,10.80
2017-08-21T01:26:50.182Z,10.80
2017-08-21T01:29:17.699Z,10.70
2017-08-21T01:31:45.244Z,10.70
2017-08-21T01:34:12.771Z,10.70
2017-08-21T01:36:40.305Z,10.70
2017-08-21T01:39:07.832Z,10.70
2017-08-21T01:41:35.439Z,10.70
2017-08-21T01:44:02.970Z,10.70
2017-08-21T01:46:30.503Z,10.60
2017-08-21T01:48:58.029Z,10.60
2017-08-21T01:51:25.564Z,10.60
2017-08-21T01:53:53.107Z,10.60
2017-08-21T01:56:20.626Z,10.50
2017-08-21T01:58:48.178Z,10.50
2017-08-21T02:01:15.701Z,10.50
2017-08-21T02:03:43.255Z,10.40
2017-08-21T02:06:11.539Z,10.40
2017-08-21T02:08:39.086Z,10.40
2017-08-21T02:11:07.370Z,10.50
2017-08-21T02:13:35.685Z,10.50
2017-08-21T02:16:03.208Z,10.50
2017-08-21T02:18:30.760Z,10.60
2017-08-21T02:20:58.276Z,10.60
2017-08-21T02:23:25.818Z,10.60
2017-08-21T02:25:53.339Z,10.70
2017-08-21T02:28:20.863Z,10.70
2017-08-21T02:30:48.399Z,10.70
2017-08-21T02:33:16.682Z,10.70
2017-08-21T02:35:44.219Z,10.60
2017-08-21T02:38:24.439Z,10.60
2017-08-21T02:40:51.992Z,10.60
2017-08-21T02:43:19.510Z,10.60
2017-08-21T02:45:47.049Z,10.60
2017-08-21T02:48:14.579Z,10.50
2017-08-21T02:50:42.122Z,10.50
2017-08-21T02:53:09.652Z,10.40
2017-08-21T02:55:37.202Z,10.40
2017-08-21T02:58:04.723Z,10.30
2017-08-21T03:00:32.259Z,10.30
2017-08-21T03:03:00.548Z,10.40
2017-08-21T03:05:28.086Z,10.30
2017-08-21T03:07:55.619Z,10.40
2017-08-21T03:10:23.174Z,10.20
2017-08-21T03:12:50.700Z,10.20
2017-08-21T03:15:18.225Z,10.20
2017-08-21T03:17:45.767Z,10.20
2017-08-21T03:20:14.055Z,10.10
2017-08-21T03:22:41.610Z,10.10
2017-08-21T03:25:09.889Z,9.80
2017-08-21T03:27:37.422Z,9.80
2017-08-21T03:30:04.946Z,9.80
2017-08-21T03:32:32.488Z,9.80
2017-08-21T03:35:00.011Z,9.80
2017-08-21T03:37:27.551Z,9.80
2017-08-21T03:39:55.071Z,9.80
2017-08-21T03:42:22.625Z,9.80
2017-08-21T03:44:50.154Z,9.80
2017-08-21T03:47:17.682Z,9.90
2017-08-21T03:49:45.220Z,9.90
2017-08-21T03:52:12.737Z,9.90
2017-08-21T03:54:40.280Z,9.90
2017-08-21T03:57:07.803Z,9.80
2017-08-21T03:59:35.341Z,9.70
2017-08-21T04:02:02.859Z,9.60
2017-08-21T04:04:30.395Z,9.50
2017-08-21T04:06:57.915Z,9.40
2017-08-21T04:09:25.446Z,9.40
2017-08-21T04:11:53.727Z,9.30
2017-08-21T04:14:21.270Z,9.30
2017-08-21T04:16:48.789Z,9.40
2017-08-21T04:19:17.074Z,9.40
2017-08-21T04:21:44.602Z,9.40
2017-08-21T04:24:12.122Z,9.40
2017-08-21T04:26:39.666Z,9.40
2017-08-21T04:29:07.182Z,9.40
2017-08-21T04:31:34.714Z,9.40
2017-08-21T04:34:02.998Z,9.50
2017-08-21T04:36:30.537Z,9.50
2017-08-21T04:38:58.058Z,9.60
2017-08-21T04:41:25.593Z,9.60
2017-08-21T04:43:53.116Z,9.60
2017-08-21T04:46:20.654Z,9.70
2017-08-21T04:48:48.170Z,9.70
2017-08-21T04:51:15.714Z,9.90
2017-08-21T04:53:43.235Z,10.10
2017-08-21T04:56:11.521Z,10.80
2017-08-21T04:58:39.089Z,10.80
2017-08-21T05:01:06.607Z,11.20
2017-08-21T05:03:34.905Z,11.60
2017-08-21T05:06:02.427Z,11.60
2017-08-21T05:08:29.962Z,11.50
2017-08-21T05:10:57.480Z,11.20
2017-08-21T05:13:25.018Z,11.10
2017-08-21T05:15:52.538Z,10.90
2017-08-21T05:18:20.073Z,10.70
2017-08-21T05:20:47.603Z,10.70
2017-08-21T05:23:15.145Z,10.60
2017-08-21T05:25:42.666Z,10.80
2017-08-21T05:28:10.206Z,11.00
2017-08-21T05:30:37.736Z,11.20
2017-08-21T05:33:05.259Z,11.70
2017-08-21T05:35:32.798Z,11.90
2017-08-21T05:38:00.314Z,12.00
2017-08-21T05:40:28.615Z,12.00
2017-08-21T05:42:56.906Z,12.50
2017-08-21T05:45:24.449Z,12.50
2017-08-21T05:47:51.970Z,12.70
2017-08-21T05:50:19.515Z,12.80
2017-08-21T05:52:47.030Z,13.10
2017-08-21T05:55:14.567Z,13.20
2017-08-21T05:57:42.087Z,13.30
2017-08-21T06:00:09.627Z,13.30
2017-08-21T06:02:37.911Z,13.00
2017-08-21T06:05:05.458Z,13.00
2017-08-21T06:07:33.034Z,13.20
2017-08-21T06:10:00.558Z,13.80
2017-08-21T06:12:28.090Z,14.40
2017-08-21T06:14:55.604Z,14.80
2017-08-21T06:17:23.142Z,15.20
2017-08-21T06:19:50.654Z,15.30
2017-08-21T06:22:18.197Z,15.00
2017-08-21T06:24:45.714Z,14.50
2017-08-21T06:27:13.262Z,14.20
2017-08-21T06:29:41.551Z,13.50
2017-08-21T06:32:09.103Z,13.50
2017-08-21T06:34:36.622Z,13.20
2017-08-21T06:37:04.159Z,12.90
2017-08-21T06:39:31.670Z,12.70
2017-08-21T06:41:59.203Z,12.60
2017-08-21T06:44:27.505Z,12.70
2017-08-21T06:46:55.018Z,12.80
2017-08-21T06:49:23.318Z,13.70
2017-08-21T06:51:50.833Z,13.70
2017-08-21T06:54:19.141Z,14.60
2017-08-21T06:56:46.662Z,14.60
2017-08-21T06:59:14.197Z,14.80
2017-08-21T07:01:41.711Z,15.00
2017-08-21T07:04:09.247Z,15.00
2017-08-21T07:06:37.530Z,15.20
2017-08-21T07:09:05.842Z,15.40
2017-08-21T07:11:34.132Z,15.70
2017-08-21T07:14:01.650Z,15.70
2017-08-21T07:16:29.187Z,16.00
2017-08-21T07:18:56.702Z,16.40
2017-08-21T07:21:24.243Z,17.00
2017-08-21T07:23:51.768Z,17.40
2017-08-21T07:26:19.317Z,17.90
2017-08-21T07:28:46.846Z,18.80
2017-08-21T07:31:14.385Z,19.60
2017-08-21T07:33:41.901Z,20.30
2017-08-21T07:36:09.439Z,20.40
2017-08-21T07:38:36.969Z,20.30
2017-08-21T07:41:05.288Z,20.50
2017-08-21T07:43:32.806Z,20.40
2017-08-21T07:46:00.360Z,20.60
2017-08-21T07:48:27.883Z,20.70
2017-08-21T07:50:55.403Z,21.00
2017-08-21T07:53:23.701Z,21.20
2017-08-21T07:55:51.215Z,21.20
2017-08-21T07:58:19.522Z,21.80
2017-08-21T08:00:47.104Z,21.80
2017-08-21T08:03:15.415Z,22.30
2017-08-21T08:05:42.938Z,22.20
2017-08-21T08:08:10.481Z,21.90
2017-08-21T08:10:37.998Z,21.20
2017-08-21T08:13:05.534Z,20.50
2017-08-21T08:15:33.049Z,20.40
2017-08-21T08:18:00.587Z,20.50
2017-08-21T08:20:28.102Z,20.40
2017-08-21T08:22:55.633Z,20.40
2017-08-21T08:25:23.146Z,20.50
2017-08-21T08:27:50.690Z,20.50
2017-08-21T08:30:18.983Z,20.20
2017-08-21T08:32:46.505Z,20.20
2017-08-21T08:35:14.048Z,20.20
2017-08-21T08:37:42.333Z,21.90
2017-08-21T08:40:10.669Z,22.50
2017-08-21T08:42:38.183Z,22.50
2017-08-21T08:45:05.721Z,22.90
2017-08-21T08:47:33.234Z,22.40
2017-08-21T08:50:00.768Z,22.10
2017-08-21T08:52:28.286Z,22.10
2017-08-21T08:54:55.820Z,22.20
2017-08-21T08:57:23.344Z,22.20
2017-08-21T08:59:50.883Z,21.90
2017-08-21T09:02:18.442Z,21.10
2017-08-21T09:04:45.994Z,20.60
2017-08-21T09:07:13.510Z,20.60
2017-08-21T09:09:41.025Z,21.00
2017-08-21T09:12:08.554Z,21.50
2017-08-21T09:14:36.834Z,22.40
2017-08-21T09:17:04.374Z,22.40
2017-08-21T09:19:31.894Z,22.60
2017-08-21T09:22:00.199Z,23.30
2017-08-21T09:24:27.764Z,23.30
2017-08-21T09:26:55.301Z,22.90
2017-08-21T09:29:23.583Z,22.50
2017-08-21T09:31:51.914Z,22.10
2017-08-21T09:34:19.438Z,22.10
2017-08-21T09:36:46.974Z,21.90
2017-08-21T09:39:14.494Z,21.70
2017-08-21T09:41:42.042Z,21.50
2017-08-21T09:44:09.607Z,21.30
2017-08-21T09:46:37.126Z,20.80
2017-08-21T09:49:04.662Z,20.50
2017-08-21T09:51:32.946Z,22.20
2017-08-21T09:54:01.246Z,23.10
2017-08-21T09:56:28.837Z,23.10
2017-08-21T09:58:56.469Z,23.40
2017-08-21T10:01:23.990Z,24.20
2017-08-21T10:03:51.531Z,24.60
2017-08-21T10:06:19.047Z,24.40
2017-08-21T10:08:47.346Z,23.20
2017-08-21T10:11:14.875Z,23.20
2017-08-21T10:13:42.406Z,22.50
2017-08-21T10:16:47.045Z,22.00
2017-08-21T10:19:14.580Z,22.00
2017-08-21T10:21:42.099Z,21.80
2017-08-21T10:24:09.650Z,21.80
2017-08-21T10:26:37.169Z,21.80
2017-08-21T10:29:04.703Z,21.80
2017-08-21T10:31:32.242Z,22.10
2017-08-21T10:33:59.757Z,23.00
2017-08-21T10:36:27.293Z,23.80
2017-08-21T10:38:54.809Z,24.60
2017-08-21T10:41:22.394Z,25.20
2017-08-21T10:43:49.916Z,25.70
2017-08-21T10:46:17.452Z,25.70
2017-08-21T10:48:44.973Z,25.60
2017-08-21T10:51:12.510Z,25.60
2017-08-21T10:53:40.031Z,26.00
2017-08-21T10:56:07.566Z,26.00
2017-08-21T10:58:35.095Z,26.30
2017-08-21T11:01:02.631Z,25.60
2017-08-21T11:03:30.154Z,25.00
2017-08-21T11:05:57.702Z,25.40
2017-08-21T11:08:25.223Z,26.00
2017-08-21T11:10:52.745Z,26.30
2017-08-21T11:13:20.281Z,26.90
2017-08-21T11:15:47.799Z,27.40
2017-08-21T11:18:15.330Z,26.70
2017-08-21T11:20:42.850Z,26.40
2017-08-21T11:23:10.386Z,25.60
2017-08-21T11:25:37.901Z,24.60
2017-08-21T11:28:05.443Z,24.00
2017-08-21T11:30:32.970Z,23.40
2017-08-21T11:33:00.514Z,23.00
2017-08-21T11:35:28.030Z,22.70
2017-08-21T11:37:55.576Z,22.50
2017-08-21T11:40:23.106Z,23.00
2017-08-21T11:42:50.641Z,23.50
2017-08-21T11:45:18.158Z,24.20
2017-08-21T11:47:45.704Z,24.60
2017-08-21T11:50:13.225Z,24.80
2017-08-21T11:52:40.754Z,24.80
2017-08-21T11:55:08.295Z,24.90
2017-08-21T11:57:35.810Z,25.00
2017-08-21T12:00:03.350Z,25.00
2017-08-21T12:02:30.862Z,25.10
2017-08-21T12:04:58.399Z,25.70
2017-08-21T12:07:26.481Z,25.80
2017-08-21T12:09:54.026Z,25.60
2017-08-21T12:12:21.606Z,25.60
2017-08-21T12:14:49.151Z,25.90
2017-08-21T12:17:16.667Z,26.20
2017-08-21T12:19:44.218Z,25.90
2017-08-21T12:22:11.734Z,25.90
2017-08-21T12:24:39.258Z,26.20
2017-08-21T12:27:06.791Z,26.40
2017-08-21T12:29:34.315Z,26.50
2017-08-21T12:32:01.849Z,26.20
2017-08-21T12:34:29.371Z,25.90
2017-08-21T12:36:56.923Z,25.50
2017-08-21T12:39:24.457Z,25.40
2017-08-21T12:41:52.005Z,25.30
2017-08-21T12:44:19.536Z,25.50
2017-08-21T12:46:47.084Z,25.80
2017-08-21T12:49:14.606Z,25.10
2017-08-21T12:51:42.119Z,24.60
2017-08-21T12:54:09.656Z,24.10
2017-08-21T12:56:37.176Z,23.90
2017-08-21T12:59:04.710Z,23.80
2017-08-21T13:01:32.234Z,24.00
2017-08-21T13:03:59.779Z,24.10
2017-08-21T13:06:27.306Z,24.40
2017-08-21T13:08:54.848Z,24.50
2017-08-21T13:11:22.370Z,24.80
2017-08-21T13:13:49.906Z,24.60
2017-08-21T13:16:17.430Z,24.60
2017-08-21T13:18:44.991Z,24.40
2017-08-21T13:21:12.510Z,24.40
2017-08-21T13:23:40.029Z,24.60
2017-08-21T13:26:07.567Z,24.70
2017-08-21T13:28:35.094Z,24.90
2017-08-21T13:31:02.636Z,25.10
2017-08-21T13:33:30.167Z,25.20
2017-08-21T13:35:57.703Z,25.10
2017-08-21T13:38:25.218Z,24.80
2017-08-21T13:40:52.759Z,24.30
2017-08-21T13:43:20.278Z,24.20
2017-08-21T13:45:47.821Z,24.10
2017-08-21T13:48:15.345Z,24.00
2017-08-21T13:50:42.872Z,23.90
2017-08-21T13:53:10.417Z,23.90
2017-08-21T13:55:37.938Z,23.80
2017-08-21T13:58:05.470Z,23.90
2017-08-21T14:00:32.987Z,23.90
2017-08-21T14:03:00.526Z,23.90
2017-08-21T14:05:28.053Z,24.00
2017-08-21T14:07:55.591Z,24.10
2017-08-21T14:10:23.117Z,24.20
2017-08-21T14:12:50.662Z,24.20
2017-08-21T14:15:18.186Z,24.40
2017-08-21T14:17:45.729Z,24.40
2017-08-21T14:20:13.247Z,24.50
2017-08-21T14:22:40.794Z,24.10
2017-08-21T14:25:08.315Z,23.70
2017-08-21T14:27:35.878Z,23.40
2017-08-21T14:30:03.392Z,23.10
2017-08-21T14:32:30.912Z,22.70
2017-08-21T14:34:58.446Z,22.70
2017-08-21T14:37:25.973Z,22.80
2017-08-21T14:39:53.510Z,22.90
2017-08-21T14:42:21.034Z,23.20
2017-08-21T14:44:48.571Z,23.40
2017-08-21T14:47:16.095Z,23.60
2017-08-21T14:49:43.636Z,23.60
2017-08-21T14:52:11.167Z,23.30
2017-08-21T14:54:38.705Z,23.40
2017-08-21T14:57:06.222Z,23.30
2017-08-21T14:59:33.762Z,23.30
2017-08-21T15:02:01.281Z,23.20
2017-08-21T15:04:28.827Z,23.20
2017-08-21T15:06:56.343Z,23.30
2017-08-21T15:09:23.896Z,23.40
2017-08-21T15:11:51.406Z,23.20
2017-08-21T15:14:18.922Z,23.10
2017-08-21T15:16:46.462Z,22.90
2017-08-21T15:19:13.985Z,23.00
2017-08-21T15:21:41.522Z,23.10
2017-08-21T15:24:09.038Z,23.00
2017-08-21T15:26:36.574Z,22.90
2017-08-21T15:29:04.089Z,22.90
2017-08-21T15:31:31.629Z,22.90
2017-08-21T15:33:59.145Z,22.80
2017-08-21T15:36:26.696Z,22.60
2017-08-21T15:38:54.215Z,22.50
2017-08-21T15:41:21.767Z,22.40
2017-08-21T15:43:49.281Z,22.40
2017-08-21T15:46:16.802Z,22.30
2017-08-21T15:48:44.342Z,22.10
2017-08-21T15:51:11.858Z,22.00
2017-08-21T15:53:39.407Z,21.80
2017-08-21T15:56:06.923Z,21.80
2017-08-21T15:58:34.458Z,21.80
2017-08-21T16:01:01.975Z,21.80
2017-08-21T16:03:29.510Z,21.80
2017-08-21T16:05:57.029Z,21.70
2017-08-21T16:08:24.566Z,21.60
2017-08-21T16:10:52.090Z,21.60
2017-08-21T16:13:19.627Z,21.60
2017-08-21T16:15:47.156Z,21.50
2017-08-21T16:18:14.698Z,21.40
2017-08-21T16:20:42.217Z,21.50
2017-08-21T16:23:09.762Z,21.50
2017-08-21T16:25:37.294Z,21.40
2017-08-21T16:28:04.810Z,21.20
2017-08-21T16:30:32.350Z,21.10
2017-08-21T16:32:59.880Z,21.10
2017-08-21T16:35:27.417Z,21.10
2017-08-21T16:37:54.933Z,21.10
2017-08-21T16:40:22.466Z,21.10
2017-08-21T16:42:49.987Z,21.00
2017-08-21T16:45:17.526Z,20.90
2017-08-21T16:47:45.046Z,20.90
2017-08-21T16:50:12.582Z,20.80
2017-08-21T16:52:40.106Z,20.80
2017-08-21T16:55:07.648Z,20.70
2017-08-21T16:57:35.170Z,20.60
2017-08-21T17:00:02.734Z,20.50
2017-08-21T17:02:30.255Z,20.50
2017-08-21T17:04:57.776Z,20.50
2017-08-21T17:07:25.317Z,20.40
2017-08-21T17:09:52.840Z,20.40
2017-08-21T17:12:20.382Z,20.30
2017-08-21T17:14:47.902Z,20.20
2017-08-21T17:17:15.438Z,20.20
2017-08-21T17:19:42.959Z,20.10
2017-08-21T17:22:10.494Z,20.00
2017-08-21T17:24:38.006Z,19.90
2017-08-21T17:27:05.538Z,19.80
2017-08-21T17:29:33.049Z,19.60
2017-08-21T17:32:00.592Z,19.40
2017-08-21T17:34:28.110Z,19.20
2017-08-21T17:36:55.634Z,19.00
2017-08-21T17:39:23.174Z,18.90
2017-08-21T17:41:50.698Z,18.80
2017-08-21T17:44:18.239Z,18.70
2017-08-21T17:46:45.758Z,18.60
2017-08-21T17:49:13.302Z,18.50
2017-08-21T17:51:40.818Z,18.40
2017-08-21T17:54:08.363Z,18.30
2017-08-21T17:56:35.890Z,18.10
2017-08-21T17:59:03.433Z,18.00
2017-08-21T18:01:30.946Z,17.90
2017-08-21T18:03:58.490Z,17.80
2017-08-21T18:06:26.020Z,17.70
2017-08-21T18:08:53.566Z,17.60
2017-08-21T18:11:21.095Z,17.40
2017-08-21T18:13:49.382Z,17.10
2017-08-21T18:16:16.919Z,17.10
2017-08-21T18:18:44.438Z,17.00
2017-08-21T18:21:12.199Z,16.90
2017-08-21T18:23:41.846Z,16.80
2017-08-21T18:26:11.232Z,16.70
2017-08-21T18:28:39.817Z,16.60
2017-08-21T18:31:09.187Z,16.40
2017-08-21T18:33:37.562Z,16.30
2017-08-21T18:36:05.571Z,16.20
2017-08-21T18:38:33.170Z,16.10
2017-08-21T18:41:00.710Z,16.10
2017-08-21T18:43:28.225Z,16.00
2017-08-21T18:45:55.762Z,15.90
2017-08-21T18:48:23.283Z,15.70
2017-08-21T18:50:50.826Z,15.60
2017-08-21T18:53:18.343Z,15.40
2017-08-21T18:55:45.868Z,15.30
2017-08-21T18:58:13.402Z,15.30
2017-08-21T19:00:40.927Z,15.20
2017-08-21T19:03:08.470Z,15.10
2017-08-21T19:05:35.995Z,15.00
2017-08-21T19:08:03.530Z,14.90
2017-08-21T19:10:31.054Z,14.80
2017-08-21T19:12:58.598Z,14.70
2017-08-21T19:15:30.542Z,14.70
2017-08-21T19:17:58.086Z,14.50
2017-08-21T19:20:25.610Z,14.40
2017-08-21T19:22:53.152Z,14.40
2017-08-21T19:25:20.679Z,14.30
2017-08-21T19:27:48.223Z,14.20
2017-08-21T19:30:15.744Z,14.10
2017-08-21T19:32:43.290Z,14.00
2017-08-21T19:35:10.807Z,14.00
2017-08-21T19:37:38.346Z,14.00
2017-08-21T19:40:05.893Z,13.90
2017-08-21T19:42:33.415Z,13.90
2017-08-21T19:45:00.960Z,13.90
2017-08-21T19:47:28.478Z,13.80
2017-08-21T19:49:56.019Z,13.70
2017-08-21T19:52:23.537Z,13.60
2017-08-21T19:54:51.078Z,13.50
2017-08-21T19:57:18.592Z,13.50
2017-08-21T19:59:46.135Z,13.40
2017-08-21T20:02:13.650Z,13.30
2017-08-21T20:04:41.188Z,13.30
2017-08-21T20:07:08.710Z,13.20
2017-08-21T20:09:36.243Z,13.10
2017-08-21T20:12:03.762Z,13.10
2017-08-21T20:14:31.303Z,13.00
2017-08-21T20:16:58.883Z,12.80
2017-08-21T20:19:26.625Z,12.80
2017-08-21T20:21:54.175Z,12.80
2017-08-21T20:24:21.694Z,12.80
2017-08-21T20:26:49.235Z,12.80
2017-08-21T20:29:16.760Z,12.90
2017-08-21T20:31:44.298Z,12.90
2017-08-21T20:34:11.818Z,12.80
2017-08-21T20:36:39.367Z,12.70
2017-08-21T20:39:06.907Z,12.60
2017-08-21T20:41:37.501Z,12.50
2017-08-21T20:44:05.475Z,12.40
2017-08-21T20:46:33.585Z,12.40
2017-08-21T20:49:02.416Z,12.30
2017-08-21T20:51:30.382Z,12.30
2017-08-21T20:53:57.928Z,12.30
2017-08-21T20:56:25.461Z,12.40
2017-08-21T20:58:52.981Z,12.40
2017-08-21T21:01:20.514Z,12.30
2017-08-21T21:03:48.031Z,12.30
2017-08-21T21:06:15.592Z,12.30
2017-08-21T21:08:43.106Z,12.30
2017-08-21T21:11:10.627Z,12.20
2017-08-21T21:13:38.163Z,12.10
2017-08-21T21:16:05.679Z,11.90
2017-08-21T21:18:33.219Z,11.80
2017-08-21T21:21:00.734Z,11.80
2017-08-21T21:23:28.271Z,11.80
2017-08-21T21:25:55.791Z,11.70
2017-08-21T21:28:23.326Z,11.70
2017-08-21T21:30:50.842Z,11.70
2017-08-21T21:33:18.400Z,11.70
2017-08-21T21:35:45.917Z,11.80
2017-08-21T21:38:13.463Z,11.80
2017-08-21T21:40:40.977Z,11.70
2017-08-21T21:43:08.514Z,11.70
2017-08-21T21:45:36.038Z,11.60
2017-08-21T21:48:03.598Z,11.50
2017-08-21T21:50:31.118Z,11.30
2017-08-21T21:52:58.640Z,11.30
2017-08-21T21:55:26.179Z,11.20
2017-08-21T21:57:53.700Z,11.20
2017-08-21T22:00:21.234Z,11.30
2017-08-21T22:02:48.745Z,11.30
2017-08-21T22:05:16.274Z,11.30
2017-08-21T22:07:43.791Z,11.30
2017-08-21T22:10:11.330Z,11.20
2017-08-21T22:12:38.849Z,11.10
2017-08-21T22:15:06.392Z,11.00
2017-08-21T22:17:33.918Z,11.00
2017-08-21T22:20:01.454Z,11.00
2017-08-21T22:22:29.027Z,11.10
2017-08-21T22:24:56.562Z,11.00
2017-08-21T22:27:24.078Z,10.80
2017-08-21T22:29:51.626Z,10.60
2017-08-21T22:32:19.201Z,10.60
2017-08-21T22:34:46.718Z,10.60
2017-08-21T22:37:14.252Z,10.60
2017-08-21T22:39:41.762Z,10.70
2017-08-21T22:42:09.301Z,10.70
2017-08-21T22:44:36.814Z,10.80
2017-08-21T22:47:04.347Z,10.80
2017-08-21T22:49:31.869Z,10.90
2017-08-21T22:51:59.407Z,10.90
2017-08-21T22:54:26.928Z,10.90
2017-08-21T22:56:54.469Z,10.90
2017-08-21T22:59:21.987Z,10.90
2017-08-21T23:02:01.185Z,10.90
2017-08-21T23:04:28.705Z,10.80
2017-08-21T23:06:56.243Z,10.70
2017-08-21T23:09:23.764Z,10.60
2017-08-21T23:11:51.306Z,10.50
2017-08-21T23:14:18.851Z,10.50
2017-08-21T23:16:46.374Z,10.40
2017-08-21T23:19:13.910Z,10.30
2017-08-21T23:21:41.427Z,10.30
2017-08-21T23:24:08.970Z,10.20
2017-08-21T23:26:36.494Z,10.00
2017-08-21T23:29:04.035Z,10.00
2017-08-21T23:31:31.560Z,10.00
2017-08-21T23:33:59.095Z,10.10
2017-08-21T23:36:26.618Z,10.20
2017-08-21T23:38:54.159Z,10.20
2017-08-21T23:41:21.678Z,10.20
2017-08-21T23:43:49.219Z,10.10
2017-08-21T23:46:16.746Z,10.00
2017-08-21T23:48:44.274Z,9.90
2017-08-21T23:51:11.810Z,9.90
2017-08-21T23:53:39.330Z,9.90
2017-08-21T23:56:06.874Z,9.90
2017-08-21T23:58:34.394Z,10.00
